Time;durP1;ratioP1;P1;durP2;ratioP2;P2;SDS_P1;SDS_P2;PMS_P1;PMS_P2;Temp;Humidity;BMP_temperature;BMP_pressure;BME280_temperature;BME280_humidity;BME280_pressure;Samples;Min_cycle;Max_cycle;Signal;HPM_P1;HPM_P2
2021/04/30 00:01:08;;;;;;;4.65;3.38;;;;;;;;;;4921260;29;20024;-55
2021/04/30 00:03:33;;;;;;;4.32;2.53;;;;;;;;;;4918427;29;20020;-53
2021/04/30 00:05:58;;;;;;;5.60;3.85;;;;;;;;;;4917310;29;20074;-54
2021/04/30 00:08:24;;;;;;;8.35;4.38;;;;;;;;;;4920465;29;20825;-52
2021/04/30 00:10:49;;;;;;;7.90;3.72;;;;;;;;;;4922661;29;20051;-55
2021/04/30 00:13:14;;;;;;;9.10;3.33;;;;;;;;;;4926959;29;20048;-54
2021/04/30 00:15:45;;;;;;;7.78;3.80;;;;;;;;;;4926661;29;20473;-54
2021/04/30 00:18:10;;;;;;;6.35;2.97;;;;;;;;;;4927180;29;20052;-56
2021/04/30 00:20:37;;;;;;;2.80;2.38;;;;;;;;;;4924456;29;20030;-55
2021/04/30 00:23:05;;;;;;;5.88;3.00;;;;;;;;;;4922366;29;20040;-56
2021/04/30 00:25:31;;;;;;;4.22;2.00;;;;;;;;;;4920871;29;20047;-56
2021/04/30 00:27:56;;;;;;;4.45;2.60;;;;;;;;;;4923591;29;20488;-55
2021/04/30 00:30:21;;;;;;;6.15;3.00;;;;;;;;;;4923473;29;20035;-56
2021/04/30 00:32:47;;;;;;;6.82;4.13;;;;;;;;;;4923083;29;20032;-54
2021/04/30 00:35:12;;;;;;;5.93;2.38;;;;;;;;;;4923323;29;20554;-56
2021/04/30 00:37:38;;;;;;;2.88;1.98;;;;;;;;;;4924337;29;20067;-55
2021/04/30 00:40:08;;;;;;;6.10;2.55;;;;;;;;;;4924508;29;20027;-55
2021/04/30 00:42:33;;;;;;;4.47;2.28;;;;;;;;;;4926841;29;20024;-55
2021/04/30 00:44:59;;;;;;;6.03;3.10;;;;;;;;;;4922291;29;20473;-55
2021/04/30 00:47:29;;;;;;;8.52;5.10;;;;;;;;;;4921350;29;20036;-49
2021/04/30 00:49:54;;;;;;;4.57;2.17;;;;;;;;;;4921646;29;20688;-53
2021/04/30 00:52:20;;;;;;;9.38;2.60;;;;;;;;;;4924703;29;20091;-55
2021/04/30 00:54:45;;;;;;;15.98;5.00;;;;;;;;;;4921883;29;20078;-55
2021/04/30 00:57:11;;;;;;;8.20;4.60;;;;;;;;;;4924849;29;20429;-55
2021/04/30 00:59:37;;;;;;;3.47;2.72;;;;;;;;;;4922978;29;20016;-53
2021/04/30 01:02:02;;;;;;;5.80;3.30;;;;;;;;;;4923304;29;20503;-55
2021/04/30 01:04:28;;;;;;;6.05;3.17;;;;;;;;;;4926459;29;20024;-51
2021/04/30 01:06:53;;;;;;;4.80;2.25;;;;;;;;;;4928007;29;20024;-53
2021/04/30 01:09:18;;;;;;;5.93;3.10;;;;;;;;;;4929566;29;20163;-55
2021/04/30 01:11:44;;;;;;;3.15;2.20;;;;;;;;;;4926009;29;20445;-55
2021/04/30 01:14:09;;;;;;;4.32;2.33;;;;;;;;;;4922779;29;20552;-55
2021/04/30 01:16:34;;;;;;;3.15;2.10;;;;;;;;;;4923677;29;20040;-54
2021/04/30 01:18:59;;;;;;;2.83;2.45;;;;;;;;;;4923677;29;20024;-54
2021/04/30 01:21:25;;;;;;;5.43;3.17;;;;;;;;;;4919510;29;20028;-53
2021/04/30 01:23:51;;;;;;;7.32;2.13;;;;;;;;;;4920535;29;20551;-55
2021/04/30 01:26:17;;;;;;;3.67;2.33;;;;;;;;;;4924830;29;20036;-56
2021/04/30 01:28:43;;;;;;;3.70;2.33;;;;;;;;;;4929290;29;20055;-55
2021/04/30 01:31:08;;;;;;;6.07;3.17;;;;;;;;;;4925374;29;20066;-54
2021/04/30 01:33:34;;;;;;;4.35;2.78;;;;;;;;;;4924507;29;20322;-55
2021/04/30 01:35:59;;;;;;;3.28;2.38;;;;;;;;;;4921672;29;20032;-55
2021/04/30 01:38:25;;;;;;;7.28;4.15;;;;;;;;;;4923536;29;20536;-54
2021/04/30 01:40:50;;;;;;;4.60;2.53;;;;;;;;;;4922026;29;20031;-54
2021/04/30 01:43:18;;;;;;;2.50;2.00;;;;;;;;;;4920497;29;20429;-57
2021/04/30 01:46:27;;;;;;;4.88;3.13;;;;;;;;;;4922075;29;20027;-54
2021/04/30 01:48:35;;;;;;;5.82;3.67;;;;;;;;;;4918507;29;20421;-53
2021/04/30 01:51:01;;;;;;;7.07;4.03;;;;;;;;;;4921372;29;20040;-56
2021/04/30 01:53:29;;;;;;;8.93;4.38;;;;;;;;;;4923557;29;20036;-54
2021/04/30 01:55:57;;;;;;;4.63;2.47;;;;;;;;;;4921367;29;20054;-54
2021/04/30 01:58:23;;;;;;;10.55;2.75;;;;;;;;;;4921981;29;20692;-50
2021/04/30 02:00:52;;;;;;;5.72;3.05;;;;;;;;;;4918146;29;20035;-54
2021/04/30 02:03:17;;;;;;;5.97;2.95;;;;;;;;;;4922460;29;20024;-54
2021/04/30 02:05:43;;;;;;;3.60;2.40;;;;;;;;;;4920067;29;20027;-56
2021/04/30 02:08:12;;;;;;;7.95;3.92;;;;;;;;;;4921535;29;20430;-54
2021/04/30 02:10:38;;;;;;;5.70;4.00;;;;;;;;;;4921833;29;20036;-55
2021/04/30 02:13:04;;;;;;;4.88;3.33;;;;;;;;;;4922624;29;20106;-53
2021/04/30 02:15:34;;;;;;;15.10;4.95;;;;;;;;;;4919200;29;20024;-53
2021/04/30 02:18:00;;;;;;;5.40;4.13;;;;;;;;;;4921625;29;20032;-57
2021/04/30 02:20:25;;;;;;;8.35;4.18;;;;;;;;;;4920748;29;20090;-51
2021/04/30 02:22:51;;;;;;;8.98;3.63;;;;;;;;;;4919457;29;20453;-54
2021/04/30 02:25:18;;;;;;;11.63;3.85;;;;;;;;;;4921484;29;20026;-54
2021/04/30 02:27:43;;;;;;;7.05;2.72;;;;;;;;;;4923449;29;20122;-54
2021/04/30 02:30:09;;;;;;;4.13;3.72;;;;;;;;;;4923796;29;20035;-51
2021/04/30 02:32:35;;;;;;;5.10;3.50;;;;;;;;;;4923241;29;20494;-53
2021/04/30 02:35:01;;;;;;;10.15;3.53;;;;;;;;;;4923662;29;20470;-52
2021/04/30 02:37:26;;;;;;;6.63;3.58;;;;;;;;;;4921604;29;20536;-55
2021/04/30 02:39:52;;;;;;;7.53;3.65;;;;;;;;;;4924800;29;20032;-54
2021/04/30 02:42:17;;;;;;;4.40;3.05;;;;;;;;;;4925810;29;20024;-54
2021/04/30 02:44:44;;;;;;;14.55;4.63;;;;;;;;;;4924867;29;20058;-53
2021/04/30 02:47:09;;;;;;;7.28;3.45;;;;;;;;;;4922028;29;20020;-54
2021/04/30 02:49:53;;;;;;;8.35;4.13;;;;;;;;;;4923828;29;20078;-50
2021/04/30 02:52:19;;;;;;;6.57;3.38;;;;;;;;;;4919279;29;20048;-52
2021/04/30 02:54:44;;;;;;;9.07;2.47;;;;;;;;;;4918919;29;20119;-52
2021/04/30 02:57:12;;;;;;;10.25;3.10;;;;;;;;;;4921520;29;20019;-53
2021/04/30 02:59:37;;;;;;;8.48;4.43;;;;;;;;;;4920192;29;20047;-55
2021/04/30 03:02:02;;;;;;;6.88;3.83;;;;;;;;;;4925200;29;20024;-56
2021/04/30 03:04:28;;;;;;;4.60;2.00;;;;;;;;;;4924615;29;20776;-55
2021/04/30 03:06:53;;;;;;;12.55;4.32;;;;;;;;;;4920773;29;20024;-55
2021/04/30 03:09:19;;;;;;;16.90;3.65;;;;;;;;;;4922797;29;20058;-54
2021/04/30 03:11:44;;;;;;;5.63;3.58;;;;;;;;;;4921597;29;20079;-52
2021/04/30 03:14:10;;;;;;;8.98;3.38;;;;;;;;;;4917174;29;20107;-55
2021/04/30 03:16:35;;;;;;;18.95;6.13;;;;;;;;;;4924806;29;20086;-55
2021/04/30 03:19:01;;;;;;;12.27;3.85;;;;;;;;;;4920703;29;20035;-56
2021/04/30 03:21:26;;;;;;;14.32;3.40;;;;;;;;;;4920508;29;20027;-55
2021/04/30 03:23:52;;;;;;;11.90;3.08;;;;;;;;;;4919708;29;20107;-55
2021/04/30 03:26:17;;;;;;;4.78;2.50;;;;;;;;;;4922174;29;20469;-54
2021/04/30 03:28:42;;;;;;;4.95;2.40;;;;;;;;;;4917812;29;20086;-55
2021/04/30 03:31:08;;;;;;;3.25;2.05;;;;;;;;;;4921732;29;20034;-53
2021/04/30 03:33:33;;;;;;;16.42;3.92;;;;;;;;;;4917932;29;20532;-53
2021/04/30 03:35:58;;;;;;;3.50;1.77;;;;;;;;;;4918551;29;20036;-51
2021/04/30 03:38:24;;;;;;;2.67;2.05;;;;;;;;;;4917926;29;20051;-55
2021/04/30 03:40:49;;;;;;;7.53;3.90;;;;;;;;;;4919539;29;20393;-55
2021/04/30 03:43:14;;;;;;;3.38;3.08;;;;;;;;;;4918199;29;20082;-51
2021/04/30 03:45:40;;;;;;;3.67;2.35;;;;;;;;;;4918891;29;20039;-54
2021/04/30 03:48:06;;;;;;;5.80;3.78;;;;;;;;;;4919774;29;20508;-55
2021/04/30 03:50:31;;;;;;;3.85;1.77;;;;;;;;;;4921509;29;20084;-52
2021/04/30 03:52:57;;;;;;;10.07;2.70;;;;;;;;;;4919311;29;20185;-56
2021/04/30 03:55:22;;;;;;;5.32;2.42;;;;;;;;;;4921460;29;20042;-56
2021/04/30 03:57:47;;;;;;;10.60;2.40;;;;;;;;;;4922763;29;20473;-55
2021/04/30 04:00:13;;;;;;;5.70;3.85;;;;;;;;;;4919356;29;20496;-53
2021/04/30 04:02:38;;;;;;;13.68;2.88;;;;;;;;;;4919266;29;20028;-54
2021/04/30 04:05:04;;;;;;;2.38;1.50;;;;;;;;;;4916590;29;20024;-52
2021/04/30 04:07:29;;;;;;;8.60;2.85;;;;;;;;;;4919875;29;20547;-53
2021/04/30 04:09:54;;;;;;;8.50;4.18;;;;;;;;;;4921182;29;20474;-56
2021/04/30 04:12:20;;;;;;;6.30;3.42;;;;;;;;;;4917970;29;20024;-55
2021/04/30 04:14:45;;;;;;;9.27;3.58;;;;;;;;;;4921435;29;20102;-55
2021/04/30 04:17:13;;;;;;;10.15;3.78;;;;;;;;;;4921633;29;20403;-53
2021/04/30 04:19:38;;;;;;;7.10;2.47;;;;;;;;;;4920382;29;20083;-56
2021/04/30 04:22:03;;;;;;;11.73;2.67;;;;;;;;;;4918599;29;20025;-54
2021/04/30 04:24:28;;;;;;;14.95;4.25;;;;;;;;;;4915260;29;20028;-54
2021/04/30 04:26:54;;;;;;;2.25;1.95;;;;;;;;;;4916384;29;20397;-53
2021/04/30 04:29:19;;;;;;;4.90;3.25;;;;;;;;;;4919638;29;20485;-52
2021/04/30 04:31:44;;;;;;;14.52;3.00;;;;;;;;;;4912232;29;20517;-52
2021/04/30 04:34:10;;;;;;;4.70;3.25;;;;;;;;;;4919777;29;20049;-52
2021/04/30 04:36:35;;;;;;;3.67;2.53;;;;;;;;;;4919102;29;20039;-53
2021/04/30 04:39:00;;;;;;;10.73;3.53;;;;;;;;;;4923608;29;20020;-55
2021/04/30 04:41:26;;;;;;;8.02;2.28;;;;;;;;;;4923017;29;20055;-52
2021/04/30 04:43:52;;;;;;;4.45;3.60;;;;;;;;;;4918985;29;20028;-52
2021/04/30 04:46:17;;;;;;;11.40;3.30;;;;;;;;;;4934065;29;20032;-56
2021/04/30 04:48:42;;;;;;;2.22;2.03;;;;;;;;;;4922029;29;20442;-54
2021/04/30 04:51:07;;;;;;;6.22;4.15;;;;;;;;;;4919695;29;20651;-54
2021/04/30 04:53:33;;;;;;;9.85;3.65;;;;;;;;;;4923612;29;20127;-54
2021/04/30 04:55:58;;;;;;;6.60;2.30;;;;;;;;;;4925786;29;20118;-55
2021/04/30 04:58:23;;;;;;;9.65;3.40;;;;;;;;;;4924643;29;20082;-54
2021/04/30 05:00:49;;;;;;;4.55;3.30;;;;;;;;;;4927086;29;20032;-55
2021/04/30 05:03:14;;;;;;;6.28;2.20;;;;;;;;;;4923910;29;20535;-54
2021/04/30 05:05:39;;;;;;;10.85;2.97;;;;;;;;;;4923559;29;20028;-55
2021/04/30 05:08:05;;;;;;;12.82;5.82;;;;;;;;;;4922608;29;20092;-55
2021/04/30 05:10:30;;;;;;;11.23;4.07;;;;;;;;;;4926502;29;20432;-54
2021/04/30 05:12:55;;;;;;;13.00;2.25;;;;;;;;;;4921672;29;20040;-54
2021/04/30 05:15:22;;;;;;;2.70;1.95;;;;;;;;;;4921124;29;20035;-54
2021/04/30 05:17:47;;;;;;;4.43;2.25;;;;;;;;;;4923775;29;20029;-54
2021/04/30 05:20:13;;;;;;;11.05;3.95;;;;;;;;;;4924317;29;20099;-54
2021/04/30 05:22:41;;;;;;;4.38;2.08;;;;;;;;;;4921772;29;20029;-54
2021/04/30 05:25:08;;;;;;;5.38;3.03;;;;;;;;;;4920313;29;20039;-54
2021/04/30 05:27:33;;;;;;;9.13;2.13;;;;;;;;;;4920650;29;20054;-53
2021/04/30 05:29:58;;;;;;;3.95;2.65;;;;;;;;;;4923081;29;20496;-55
2021/04/30 05:32:24;;;;;;;3.40;2.75;;;;;;;;;;4925081;29;20035;-53
2021/04/30 05:34:49;;;;;;;5.03;2.42;;;;;;;;;;4922257;29;20034;-54
2021/04/30 05:37:14;;;;;;;8.00;2.78;;;;;;;;;;4926903;29;20145;-54
2021/04/30 05:39:39;;;;;;;4.18;3.28;;;;;;;;;;4927554;29;20520;-54
2021/04/30 05:42:05;;;;;;;4.07;2.90;;;;;;;;;;4924814;29;20036;-55
2021/04/30 05:44:30;;;;;;;5.63;2.63;;;;;;;;;;4922719;29;20425;-56
2021/04/30 05:46:56;;;;;;;14.63;5.30;;;;;;;;;;4923422;29;20066;-53
2021/04/30 05:49:21;;;;;;;11.65;3.63;;;;;;;;;;4923097;29;20032;-55
2021/04/30 05:51:46;;;;;;;6.57;2.90;;;;;;;;;;4926079;29;20147;-52
2021/04/30 05:54:12;;;;;;;5.68;3.55;;;;;;;;;;4921568;29;20110;-55
2021/04/30 05:56:38;;;;;;;19.50;5.13;;;;;;;;;;4923518;29;20035;-51
2021/04/30 05:59:04;;;;;;;6.70;5.60;;;;;;;;;;4919429;29;20035;-54
2021/04/30 06:01:29;;;;;;;7.20;3.13;;;;;;;;;;4920673;29;20031;-53
2021/04/30 06:03:54;;;;;;;11.88;3.25;;;;;;;;;;4921494;29;20090;-54
2021/04/30 06:06:20;;;;;;;7.18;3.83;;;;;;;;;;4918255;29;20529;-55
2021/04/30 06:08:45;;;;;;;7.93;3.63;;;;;;;;;;4920152;29;20052;-56
2021/04/30 06:11:10;;;;;;;7.07;3.00;;;;;;;;;;4920638;29;20115;-56
2021/04/30 06:13:36;;;;;;;11.73;3.88;;;;;;;;;;4921848;29;20028;-55
2021/04/30 06:16:01;;;;;;;8.52;3.47;;;;;;;;;;4920710;29;20553;-53
2021/04/30 06:18:26;;;;;;;7.65;4.78;;;;;;;;;;4920551;29;20386;-51
2021/04/30 06:20:52;;;;;;;10.13;6.85;;;;;;;;;;4921378;29;20023;-55
2021/04/30 06:23:18;;;;;;;17.88;6.07;;;;;;;;;;4920769;29;20053;-55
2021/04/30 06:25:43;;;;;;;11.30;7.13;;;;;;;;;;4921616;29;20036;-53
2021/04/30 06:28:09;;;;;;;30.40;7.68;;;;;;;;;;4923252;29;20063;-56
2021/04/30 06:30:34;;;;;;;7.25;6.30;;;;;;;;;;4918484;29;20075;-55
2021/04/30 06:33:00;;;;;;;10.60;4.47;;;;;;;;;;4919823;29;20056;-55
2021/04/30 06:35:26;;;;;;;12.68;5.60;;;;;;;;;;4924098;29;20031;-53
2021/04/30 06:37:52;;;;;;;10.65;5.43;;;;;;;;;;4921789;29;20118;-52
2021/04/30 06:40:18;;;;;;;6.82;3.47;;;;;;;;;;4921465;29;20032;-52
2021/04/30 06:42:43;;;;;;;8.38;2.85;;;;;;;;;;4920984;29;20079;-50
2021/04/30 06:45:09;;;;;;;7.15;2.97;;;;;;;;;;4921369;29;20028;-49
2021/04/30 06:47:34;;;;;;;18.52;8.55;;;;;;;;;;4924873;29;20024;-50
2021/04/30 06:50:00;;;;;;;16.50;8.90;;;;;;;;;;4924475;29;20467;-43
2021/04/30 06:52:25;;;;;;;17.98;9.63;;;;;;;;;;4925065;29;20556;-44
2021/04/30 06:54:50;;;;;;;20.13;7.70;;;;;;;;;;4919600;29;20370;-45
2021/04/30 06:57:17;;;;;;;11.48;6.05;;;;;;;;;;4918939;29;20028;-44
2021/04/30 06:59:43;;;;;;;9.40;5.93;;;;;;;;;;4921573;29;20039;-48
2021/04/30 07:02:08;;;;;;;19.73;8.63;;;;;;;;;;4922077;29;20032;-43
2021/04/30 07:04:37;;;;;;;11.65;5.45;;;;;;;;;;4919118;29;20106;-40
2021/04/30 07:07:03;;;;;;;13.48;7.05;;;;;;;;;;4922258;29;20080;-48
2021/04/30 07:09:28;;;;;;;9.43;7.53;;;;;;;;;;4922588;29;20536;-46
2021/04/30 07:11:53;;;;;;;18.25;11.07;;;;;;;;;;4917240;29;20044;-44
2021/04/30 07:14:19;;;;;;;25.42;14.82;;;;;;;;;;4922477;29;20032;-49
2021/04/30 07:16:44;;;;;;;24.77;14.75;;;;;;;;;;4921801;29;20516;-46
2021/04/30 07:19:10;;;;;;;31.60;19.52;;;;;;;;;;4919830;29;20157;-49
2021/04/30 07:21:35;;;;;;;32.13;25.95;;;;;;;;;;4919454;29;20477;-48
2021/04/30 07:24:00;;;;;;;44.17;32.60;;;;;;;;;;4919596;29;20031;-47
2021/04/30 07:26:26;;;;;;;34.50;23.42;;;;;;;;;;4919568;29;20035;-48
2021/04/30 07:28:51;;;;;;;38.30;28.83;;;;;;;;;;4921768;29;20036;-48
2021/04/30 07:31:16;;;;;;;47.60;29.35;;;;;;;;;;4921212;29;20024;-48
2021/04/30 07:33:50;;;;;;;40.97;27.55;;;;;;;;;;4919633;29;20047;-48
2021/04/30 07:36:16;;;;;;;44.45;23.33;;;;;;;;;;4918165;29;20036;-44
2021/04/30 07:38:42;;;;;;;31.35;20.10;;;;;;;;;;4920870;29;20031;-45
2021/04/30 07:41:08;;;;;;;23.05;16.75;;;;;;;;;;4920455;29;20039;-44
2021/04/30 07:43:33;;;;;;;23.20;16.30;;;;;;;;;;4918981;29;20026;-44
2021/04/30 07:45:59;;;;;;;20.00;15.65;;;;;;;;;;4919144;29;20028;-47
2021/04/30 07:48:25;;;;;;;24.40;20.25;;;;;;;;;;4919424;29;20028;-49
2021/04/30 07:50:51;;;;;;;29.88;20.52;;;;;;;;;;4918912;29;20036;-48
2021/04/30 07:53:16;;;;;;;23.55;19.23;;;;;;;;;;4917607;29;20024;-45
2021/04/30 07:55:42;;;;;;;23.80;17.77;;;;;;;;;;4918193;29;20056;-48
2021/04/30 07:58:07;;;;;;;18.38;15.40;;;;;;;;;;4917146;29;20482;-45
2021/04/30 08:00:32;;;;;;;20.73;15.13;;;;;;;;;;4920984;29;20048;-49
2021/04/30 08:02:58;;;;;;;22.20;13.20;;;;;;;;;;4923001;29;20020;-48
2021/04/30 08:05:24;;;;;;;29.73;14.50;;;;;;;;;;4917680;29;20050;-49
2021/04/30 08:07:50;;;;;;;23.60;16.27;;;;;;;;;;4916233;29;20054;-47
2021/04/30 08:10:15;;;;;;;20.13;15.85;;;;;;;;;;4919667;29;20501;-48
2021/04/30 08:12:40;;;;;;;32.53;20.75;;;;;;;;;;4917496;29;20044;-48
2021/04/30 08:15:07;;;;;;;27.90;22.08;;;;;;;;;;4920794;29;20035;-49
2021/04/30 08:17:35;;;;;;;26.83;23.63;;;;;;;;;;4920976;29;20072;-46
2021/04/30 08:20:02;;;;;;;24.73;22.35;;;;;;;;;;4919926;29;20024;-48
2021/04/30 08:22:28;;;;;;;30.90;22.67;;;;;;;;;;4921873;29;20024;-47
2021/04/30 08:24:54;;;;;;;21.02;13.63;;;;;;;;;;4905953;29;20043;-51
2021/04/30 08:27:20;;;;;;;13.00;11.30;;;;;;;;;;4918399;29;20040;-48
2021/04/30 08:29:46;;;;;;;16.10;11.73;;;;;;;;;;4922525;29;20032;-44
2021/04/30 08:32:11;;;;;;;16.63;12.05;;;;;;;;;;4921953;29;20035;-45
2021/04/30 08:34:36;;;;;;;9.07;6.32;;;;;;;;;;4921646;29;20035;-45
2021/04/30 08:37:01;;;;;;;5.63;4.28;;;;;;;;;;4925170;29;20027;-47
2021/04/30 08:39:27;;;;;;;12.23;5.55;;;;;;;;;;4921105;29;20434;-49
2021/04/30 08:41:52;;;;;;;6.78;5.07;;;;;;;;;;4922639;29;20029;-48
2021/04/30 08:44:18;;;;;;;12.25;8.20;;;;;;;;;;4922923;29;20060;-44
2021/04/30 08:46:44;;;;;;;13.75;9.20;;;;;;;;;;4919525;29;20027;-48
2021/04/30 08:49:10;;;;;;;17.38;9.25;;;;;;;;;;4927059;29;20028;-44
2021/04/30 08:51:36;;;;;;;5.63;4.43;;;;;;;;;;4922269;29;20071;-44
2021/04/30 08:54:02;;;;;;;8.38;3.75;;;;;;;;;;4921662;29;20036;-45
2021/04/30 08:56:27;;;;;;;5.65;3.83;;;;;;;;;;4926019;29;20080;-47
2021/04/30 08:58:54;;;;;;;10.60;4.35;;;;;;;;;;4917903;29;20027;-50
2021/04/30 09:01:19;;;;;;;4.80;3.58;;;;;;;;;;4918299;29;20038;-44
2021/04/30 09:03:46;;;;;;;10.00;3.90;;;;;;;;;;4922689;29;20027;-47
2021/04/30 09:06:18;;;;;;;11.35;3.80;;;;;;;;;;4919402;29;20032;-44
2021/04/30 09:08:48;;;;;;;8.50;4.07;;;;;;;;;;4931889;29;20067;-46
2021/04/30 09:11:33;;;;;;;11.93;3.78;;;;;;;;;;4927415;29;20055;-46
2021/04/30 09:14:17;;;;;;;8.80;4.95;;;;;;;;;;4922478;29;20159;-48
2021/04/30 09:16:58;;;;;;;13.73;4.65;;;;;;;;;;4922307;29;20039;-58
2021/04/30 09:19:31;;;;;;;9.73;5.07;;;;;;;;;;4922638;29;20752;-58
2021/04/30 09:22:00;;;;;;;25.92;8.63;;;;;;;;;;4923371;29;20032;-58
2021/04/30 09:24:25;;;;;;;15.98;10.50;;;;;;;;;;4922813;29;20546;-58
2021/04/30 09:26:50;;;;;;;10.95;6.68;;;;;;;;;;4921999;29;20032;-57
2021/04/30 09:29:16;;;;;;;11.15;7.13;;;;;;;;;;4921493;29;20024;-46
2021/04/30 09:31:42;;;;;;;8.95;6.07;;;;;;;;;;4920830;29;20398;-46
2021/04/30 09:34:27;;;;;;;9.55;6.25;;;;;;;;;;4924705;29;20130;-42
2021/04/30 09:37:14;;;;;;;13.43;7.60;;;;;;;;;;4925628;29;20127;-44
2021/04/30 09:39:54;;;;;;;11.60;6.53;;;;;;;;;;4921889;29;20031;-48
2021/04/30 09:42:21;;;;;;;9.60;4.88;;;;;;;;;;4921618;29;20016;-44
2021/04/30 09:44:48;;;;;;;14.40;4.32;;;;;;;;;;4919735;29;20075;-43
2021/04/30 09:47:15;;;;;;;7.03;3.70;;;;;;;;;;4919721;29;20892;-47
2021/04/30 09:49:40;;;;;;;9.88;4.50;;;;;;;;;;4920338;29;20509;-48
2021/04/30 09:52:07;;;;;;;5.40;3.55;;;;;;;;;;4925825;29;20043;-47
2021/04/30 09:54:33;;;;;;;8.35;4.78;;;;;;;;;;4917571;29;20028;-51
2021/04/30 09:57:12;;;;;;;6.00;3.15;;;;;;;;;;4923215;29;20104;-44
2021/04/30 09:59:41;;;;;;;13.55;3.97;;;;;;;;;;4923287;29;20600;-47
2021/04/30 10:02:06;;;;;;;48.88;14.10;;;;;;;;;;4923652;29;20028;-47
2021/04/30 10:04:33;;;;;;;24.48;7.35;;;;;;;;;;4922438;29;20028;-48
2021/04/30 10:06:59;;;;;;;50.95;16.55;;;;;;;;;;4922215;29;20035;-48
2021/04/30 10:09:28;;;;;;;10.30;3.75;;;;;;;;;;4920180;29;20051;-50
2021/04/30 10:11:57;;;;;;;11.57;4.82;;;;;;;;;;4916705;29;20067;-43
2021/04/30 10:14:24;;;;;;;15.55;4.97;;;;;;;;;;4922514;29;20040;-42
2021/04/30 10:16:50;;;;;;;12.07;7.13;;;;;;;;;;4920584;29;20106;-46
2021/04/30 10:19:15;;;;;;;9.23;4.95;;;;;;;;;;4914191;29;20488;-46
2021/04/30 10:21:41;;;;;;;13.77;5.63;;;;;;;;;;4918129;29;20056;-45
2021/04/30 10:24:10;;;;;;;16.52;4.28;;;;;;;;;;4917549;29;20039;-48
2021/04/30 10:26:35;;;;;;;8.00;3.42;;;;;;;;;;4914543;29;20489;-42
2021/04/30 10:29:02;;;;;;;5.53;2.35;;;;;;;;;;4920918;29;20039;-42
2021/04/30 10:31:29;;;;;;;8.27;3.17;;;;;;;;;;4918225;29;20079;-45
2021/04/30 10:33:59;;;;;;;8.60;2.75;;;;;;;;;;4918701;29;20032;-47
2021/04/30 10:36:29;;;;;;;9.88;3.63;;;;;;;;;;4916868;29;20481;-42
2021/04/30 10:38:55;;;;;;;6.10;3.33;;;;;;;;;;4918304;29;20032;-46
2021/04/30 10:41:33;;;;;;;6.18;3.67;;;;;;;;;;4918602;29;20031;-45
2021/04/30 10:44:22;;;;;;;10.50;3.95;;;;;;;;;;4914411;29;20506;-44
2021/04/30 10:46:49;;;;;;;5.25;2.15;;;;;;;;;;4907712;29;20080;-47
2021/04/30 10:49:22;;;;;;;20.10;3.58;;;;;;;;;;4922385;29;20055;-44
2021/04/30 10:52:20;;;;;;;12.63;3.53;;;;;;;;;;4916906;29;20032;-47
2021/04/30 10:54:46;;;;;;;9.30;5.03;;;;;;;;;;4885063;29;20039;-42
2021/04/30 10:57:11;;;;;;;12.35;3.67;;;;;;;;;;4916954;29;20098;-49
2021/04/30 10:59:38;;;;;;;5.85;2.60;;;;;;;;;;4916847;29;20379;-45
2021/04/30 11:02:21;;;;;;;10.40;3.08;;;;;;;;;;4920495;29;20036;-44
2021/04/30 11:05:05;;;;;;;9.82;4.80;;;;;;;;;;4919548;29;20023;-46
2021/04/30 11:07:32;;;;;;;8.32;3.08;;;;;;;;;;4922191;29;20032;-44
2021/04/30 11:09:57;;;;;;;11.70;3.63;;;;;;;;;;4920476;29;20028;-41
2021/04/30 11:12:23;;;;;;;3.30;2.30;;;;;;;;;;4919638;29;20380;-40
2021/04/30 11:14:56;;;;;;;7.15;3.72;;;;;;;;;;4918345;29;20114;-46
2021/04/30 11:17:41;;;;;;;5.97;3.30;;;;;;;;;;4919601;29;20035;-41
2021/04/30 11:20:11;;;;;;;5.43;3.08;;;;;;;;;;4909954;29;20043;-43
2021/04/30 11:22:36;;;;;;;20.30;3.92;;;;;;;;;;4916613;29;20047;-43
2021/04/30 11:25:01;;;;;;;10.75;2.58;;;;;;;;;;4920819;29;20028;-44
2021/04/30 11:27:30;;;;;;;6.43;3.05;;;;;;;;;;4915795;29;20496;-44
2021/04/30 11:30:14;;;;;;;6.13;2.55;;;;;;;;;;4918916;29;20036;-46
2021/04/30 11:32:48;;;;;;;11.45;3.60;;;;;;;;;;4916497;29;20028;-43
2021/04/30 11:35:14;;;;;;;5.57;1.35;;;;;;;;;;4920294;29;20038;-43
2021/04/30 11:37:40;;;;;;;3.42;2.40;;;;;;;;;;4918997;29;20023;-43
2021/04/30 11:40:05;;;;;;;15.88;2.88;;;;;;;;;;4914842;29;20032;-42
2021/04/30 11:42:31;;;;;;;8.77;4.38;;;;;;;;;;4919429;29;20028;-42
2021/04/30 11:44:57;;;;;;;13.55;5.95;;;;;;;;;;4920517;29;20433;-46
2021/04/30 11:47:29;;;;;;;10.90;8.95;;;;;;;;;;4916523;29;20032;-43
2021/04/30 11:49:55;;;;;;;16.40;7.82;;;;;;;;;;4918151;29;20138;-43
2021/04/30 11:52:27;;;;;;;16.20;4.45;;;;;;;;;;4919066;29;20048;-43
2021/04/30 11:54:59;;;;;;;9.77;5.38;;;;;;;;;;4915912;29;20035;-45
2021/04/30 11:57:24;;;;;;;17.23;6.32;;;;;;;;;;4917114;29;20107;-43
2021/04/30 11:59:51;;;;;;;10.30;7.57;;;;;;;;;;4917810;29;20472;-44
2021/04/30 12:02:18;;;;;;;9.85;6.45;;;;;;;;;;4919667;29;20509;-46
2021/04/30 12:04:44;;;;;;;6.05;4.63;;;;;;;;;;4922150;29;20031;-46
2021/04/30 12:07:11;;;;;;;13.15;3.10;;;;;;;;;;4926402;29;20038;-46
2021/04/30 12:09:36;;;;;;;10.52;4.82;;;;;;;;;;4917684;29;20130;-46
2021/04/30 12:12:20;;;;;;;6.25;4.53;;;;;;;;;;4920306;29;20489;-44
2021/04/30 12:14:57;;;;;;;6.10;3.95;;;;;;;;;;4924101;29;20127;-44
2021/04/30 12:17:22;;;;;;;15.25;6.25;;;;;;;;;;4921871;29;20272;-43
2021/04/30 12:19:54;;;;;;;12.82;4.68;;;;;;;;;;4920515;29;20491;-50
2021/04/30 12:22:19;;;;;;;7.53;5.53;;;;;;;;;;4918556;29;20084;-49
2021/04/30 12:24:44;;;;;;;29.35;9.65;;;;;;;;;;4920121;29;20027;-48
2021/04/30 12:27:10;;;;;;;11.05;6.90;;;;;;;;;;4921723;29;20595;-53
2021/04/30 12:29:37;;;;;;;14.20;8.82;;;;;;;;;;4917681;29;20040;-50
2021/04/30 12:32:03;;;;;;;17.58;10.32;;;;;;;;;;4920772;29;20122;-52
2021/04/30 12:34:28;;;;;;;15.23;4.32;;;;;;;;;;4919618;29;20167;-50
2021/04/30 12:36:53;;;;;;;7.72;3.58;;;;;;;;;;4922686;29;20409;-53
2021/04/30 12:39:26;;;;;;;15.55;5.40;;;;;;;;;;4922819;29;20452;-51
2021/04/30 12:41:51;;;;;;;8.68;4.03;;;;;;;;;;4920979;29;20038;-53
2021/04/30 12:44:17;;;;;;;48.03;23.42;;;;;;;;;;4927510;29;20032;-50
2021/04/30 12:46:42;;;;;;;4.40;3.05;;;;;;;;;;4923247;29;20570;-45
2021/04/30 12:49:15;;;;;;;10.27;7.03;;;;;;;;;;4922630;29;20039;-45
2021/04/30 12:51:49;;;;;;;7.13;3.20;;;;;;;;;;4920976;29;20044;-46
2021/04/30 12:54:15;;;;;;;8.45;4.15;;;;;;;;;;4919941;29;20087;-44
2021/04/30 12:56:41;;;;;;;44.20;21.67;;;;;;;;;;4920699;29;20032;-44
2021/04/30 12:59:19;;;;;;;8.18;4.88;;;;;;;;;;4919310;29;20043;-42
2021/04/30 13:01:45;;;;;;;4.60;2.10;;;;;;;;;;4919300;29;20036;-42
2021/04/30 13:04:17;;;;;;;8.25;4.18;;;;;;;;;;4923957;29;20584;-42
2021/04/30 13:06:43;;;;;;;8.27;3.50;;;;;;;;;;4923240;29;20051;-49
2021/04/30 13:09:12;;;;;;;11.40;4.55;;;;;;;;;;4919353;29;20063;-44
2021/04/30 13:11:38;;;;;;;10.65;4.38;;;;;;;;;;4922007;29;20034;-45
2021/04/30 13:14:05;;;;;;;3.85;2.90;;;;;;;;;;4918993;29;20031;-47
2021/04/30 13:16:42;;;;;;;15.90;4.80;;;;;;;;;;4922226;29;20083;-45
2021/04/30 13:19:11;;;;;;;9.65;2.47;;;;;;;;;;4921659;29;20042;-47
2021/04/30 13:21:37;;;;;;;6.05;2.67;;;;;;;;;;4921102;29;20036;-44
2021/04/30 13:24:25;;;;;;;9.43;3.22;;;;;;;;;;4919535;29;20028;-43
2021/04/30 13:27:10;;;;;;;4.25;2.05;;;;;;;;;;4923390;29;20119;-45
2021/04/30 13:29:37;;;;;;;19.88;5.00;;;;;;;;;;4921403;29;20035;-48
2021/04/30 13:32:07;;;;;;;2.80;2.10;;;;;;;;;;4919682;29;20465;-41
2021/04/30 13:34:43;;;;;;;7.30;3.00;;;;;;;;;;4919245;29;20042;-44
2021/04/30 13:37:10;;;;;;;4.15;2.53;;;;;;;;;;4917320;29;20122;-45
2021/04/30 13:39:39;;;;;;;12.25;3.08;;;;;;;;;;4924089;29;20032;-42
2021/04/30 13:42:25;;;;;;;14.10;3.05;;;;;;;;;;4921809;29;20046;-43
2021/04/30 13:44:52;;;;;;;3.83;2.40;;;;;;;;;;4920744;29;20393;-43
2021/04/30 13:47:18;;;;;;;7.85;2.88;;;;;;;;;;4915562;29;20038;-44
2021/04/30 13:49:44;;;;;;;12.48;3.47;;;;;;;;;;4926174;29;20035;-42
2021/04/30 13:52:09;;;;;;;11.60;4.72;;;;;;;;;;4924708;29;20032;-44
2021/04/30 13:54:34;;;;;;;4.70;2.78;;;;;;;;;;4920870;29;20506;-43
2021/04/30 13:57:00;;;;;;;5.05;2.97;;;;;;;;;;4923999;29;20501;-41
2021/04/30 13:59:35;;;;;;;6.78;3.05;;;;;;;;;;4920626;29;20501;-43
2021/04/30 14:02:01;;;;;;;6.60;3.17;;;;;;;;;;4921765;29;20035;-47
2021/04/30 14:04:26;;;;;;;9.65;2.85;;;;;;;;;;4917825;29;20036;-46
2021/04/30 14:06:51;;;;;;;6.10;2.88;;;;;;;;;;4919969;29;20085;-47
2021/04/30 14:09:17;;;;;;;8.63;3.70;;;;;;;;;;4920280;29;20071;-46
2021/04/30 14:11:42;;;;;;;5.47;3.20;;;;;;;;;;4917580;29;20072;-46
2021/04/30 14:14:07;;;;;;;8.63;2.78;;;;;;;;;;4915694;29;20036;-47
2021/04/30 14:16:33;;;;;;;3.63;2.67;;;;;;;;;;4919760;29;20039;-46
2021/04/30 14:19:07;;;;;;;10.00;4.72;;;;;;;;;;4918964;29;20031;-46
2021/04/30 14:21:34;;;;;;;8.77;4.55;;;;;;;;;;4914422;29;20031;-44
2021/04/30 14:24:02;;;;;;;10.35;3.35;;;;;;;;;;4919105;29;20480;-45
2021/04/30 14:26:27;;;;;;;7.57;4.25;;;;;;;;;;4920780;29;20055;-45
2021/04/30 14:28:53;;;;;;;11.60;3.47;;;;;;;;;;4917496;29;20028;-43
2021/04/30 14:31:18;;;;;;;18.17;3.65;;;;;;;;;;4920173;29;20040;-45
2021/04/30 14:33:44;;;;;;;5.13;2.58;;;;;;;;;;4918415;29;20481;-45
2021/04/30 14:36:09;;;;;;;5.30;3.13;;;;;;;;;;4920448;29;20468;-44